sensor_id;sensor_type;location;lat;lon;timestamp;P1;durP1;ratioP1;P2;durP2;ratioP2
45077;SDS011;60508;42.622;25.416;2023-04-29T00:00:26;9.15;;;3.40;;
45077;SDS011;60508;42.622;25.416;2023-04-29T00:02:52;5.50;;;3.15;;
45077;SDS011;60508;42.622;25.416;2023-04-29T00:05:19;4.32;;;3.80;;
45077;SDS011;60508;42.622;25.416;2023-04-29T00:07:46;4.97;;;2.72;;
45077;SDS011;60508;42.622;25.416;2023-04-29T00:10:12;9.52;;;3.50;;
45077;SDS011;60508;42.622;25.416;2023-04-29T00:12:39;8.00;;;3.40;;
45077;SDS011;60508;42.622;25.416;2023-04-29T00:15:06;8.07;;;3.75;;
45077;SDS011;60508;42.622;25.416;2023-04-29T00:17:33;8.18;;;3.97;;
45077;SDS011;60508;42.622;25.416;2023-04-29T00:19:59;4.28;;;3.58;;
45077;SDS011;60508;42.622;25.416;2023-04-29T00:22:26;9.35;;;5.00;;
45077;SDS011;60508;42.622;25.416;2023-04-29T00:24:52;4.07;;;3.67;;
45077;SDS011;60508;42.622;25.416;2023-04-29T00:27:18;10.57;;;5.82;;
45077;SDS011;60508;42.622;25.416;2023-04-29T00:29:45;4.13;;;3.72;;
45077;SDS011;60508;42.622;25.416;2023-04-29T00:32:11;8.23;;;4.38;;
45077;SDS011;60508;42.622;25.416;2023-04-29T00:34:39;6.60;;;4.65;;
45077;SDS011;60508;42.622;25.416;2023-04-29T00:37:05;5.78;;;4.22;;
45077;SDS011;60508;42.622;25.416;2023-04-29T00:39:31;7.35;;;4.03;;
45077;SDS011;60508;42.622;25.416;2023-04-29T00:41:58;5.97;;;4.00;;
45077;SDS011;60508;42.622;25.416;2023-04-29T00:44:24;7.72;;;4.85;;
45077;SDS011;60508;42.622;25.416;2023-04-29T00:46:52;5.78;;;3.83;;
45077;SDS011;60508;42.622;25.416;2023-04-29T00:49:19;5.25;;;3.80;;
45077;SDS011;60508;42.622;25.416;2023-04-29T00:51:46;5.10;;;3.65;;
45077;SDS011;60508;42.622;25.416;2023-04-29T00:54:12;8.73;;;4.18;;
45077;SDS011;60508;42.622;25.416;2023-04-29T00:56:39;8.05;;;4.85;;
45077;SDS011;60508;42.622;25.416;2023-04-29T00:59:08;4.78;;;3.78;;
45077;SDS011;60508;42.622;25.416;2023-04-29T01:01:35;9.48;;;4.15;;
45077;SDS011;60508;42.622;25.416;2023-04-29T01:04:01;9.98;;;4.22;;
45077;SDS011;60508;42.622;25.416;2023-04-29T01:06:31;7.10;;;4.38;;
45077;SDS011;60508;42.622;25.416;2023-04-29T01:15:27;6.55;;;3.40;;
45077;SDS011;60508;42.622;25.416;2023-04-29T01:18:06;7.78;;;3.72;;
45077;SDS011;60508;42.622;25.416;2023-04-29T01:20:49;6.35;;;4.47;;
45077;SDS011;60508;42.622;25.416;2023-04-29T01:23:16;7.65;;;4.40;;
45077;SDS011;60508;42.622;25.416;2023-04-29T01:25:42;7.68;;;4.80;;
45077;SDS011;60508;42.622;25.416;2023-04-29T01:30:59;11.73;;;4.30;;
45077;SDS011;60508;42.622;25.416;2023-04-29T01:36:52;4.85;;;4.35;;
45077;SDS011;60508;42.622;25.416;2023-04-29T01:42:43;8.68;;;4.57;;
45077;SDS011;60508;42.622;25.416;2023-04-29T01:45:16;7.97;;;4.68;;
45077;SDS011;60508;42.622;25.416;2023-04-29T01:47:44;6.50;;;4.93;;
45077;SDS011;60508;42.622;25.416;2023-04-29T01:50:12;6.43;;;3.78;;
45077;SDS011;60508;42.622;25.416;2023-04-29T01:52:38;4.40;;;4.00;;
45077;SDS011;60508;42.622;25.416;2023-04-29T01:55:05;7.68;;;4.30;;
45077;SDS011;60508;42.622;25.416;2023-04-29T01:57:41;5.88;;;3.97;;
45077;SDS011;60508;42.622;25.416;2023-04-29T02:00:29;4.35;;;3.95;;
45077;SDS011;60508;42.622;25.416;2023-04-29T02:02:56;6.35;;;4.40;;
45077;SDS011;60508;42.622;25.416;2023-04-29T02:05:35;9.75;;;4.53;;
45077;SDS011;60508;42.622;25.416;2023-04-29T02:08:01;20.42;;;4.63;;
45077;SDS011;60508;42.622;25.416;2023-04-29T02:10:29;9.43;;;4.50;;
45077;SDS011;60508;42.622;25.416;2023-04-29T02:13:08;5.22;;;3.65;;
45077;SDS011;60508;42.622;25.416;2023-04-29T02:15:37;5.45;;;3.70;;
45077;SDS011;60508;42.622;25.416;2023-04-29T02:18:03;5.72;;;4.00;;
45077;SDS011;60508;42.622;25.416;2023-04-29T02:20:30;5.97;;;4.45;;
45077;SDS011;60508;42.622;25.416;2023-04-29T02:22:57;4.43;;;4.03;;
45077;SDS011;60508;42.622;25.416;2023-04-29T02:25:23;6.07;;;3.67;;
45077;SDS011;60508;42.622;25.416;2023-04-29T02:27:49;4.20;;;3.50;;
45077;SDS011;60508;42.622;25.416;2023-04-29T02:30:15;12.15;;;4.03;;
45077;SDS011;60508;42.622;25.416;2023-04-29T02:32:42;7.47;;;4.20;;
45077;SDS011;60508;42.622;25.416;2023-04-29T02:35:08;9.02;;;4.30;;
45077;SDS011;60508;42.622;25.416;2023-04-29T02:37:34;5.25;;;3.45;;
45077;SDS011;60508;42.622;25.416;2023-04-29T02:40:01;5.55;;;4.25;;
45077;SDS011;60508;42.622;25.416;2023-04-29T02:42:29;6.73;;;4.03;;
45077;SDS011;60508;42.622;25.416;2023-04-29T02:44:55;11.18;;;4.35;;
45077;SDS011;60508;42.622;25.416;2023-04-29T02:47:22;5.65;;;4.10;;
45077;SDS011;60508;42.622;25.416;2023-04-29T02:49:48;18.20;;;4.97;;
45077;SDS011;60508;42.622;25.416;2023-04-29T02:52:14;4.30;;;3.88;;
45077;SDS011;60508;42.622;25.416;2023-04-29T02:54:42;5.93;;;3.83;;
45077;SDS011;60508;42.622;25.416;2023-04-29T02:57:08;12.27;;;4.32;;
45077;SDS011;60508;42.622;25.416;2023-04-29T02:59:36;5.20;;;4.18;;
45077;SDS011;60508;42.622;25.416;2023-04-29T03:02:03;13.55;;;4.38;;
45077;SDS011;60508;42.622;25.416;2023-04-29T03:04:29;5.32;;;4.00;;
45077;SDS011;60508;42.622;25.416;2023-04-29T03:06:55;6.05;;;4.35;;
45077;SDS011;60508;42.622;25.416;2023-04-29T03:11:50;8.40;;;4.90;;
45077;SDS011;60508;42.622;25.416;2023-04-29T03:14:18;8.38;;;5.00;;
45077;SDS011;60508;42.622;25.416;2023-04-29T03:16:46;24.07;;;8.73;;
45077;SDS011;60508;42.622;25.416;2023-04-29T03:19:12;29.80;;;9.77;;
45077;SDS011;60508;42.622;25.416;2023-04-29T03:21:38;22.27;;;10.07;;
45077;SDS011;60508;42.622;25.416;2023-04-29T03:24:05;29.55;;;11.65;;
45077;SDS011;60508;42.622;25.416;2023-04-29T03:26:33;25.52;;;10.18;;
45077;SDS011;60508;42.622;25.416;2023-04-29T03:28:59;44.83;;;16.40;;
45077;SDS011;60508;42.622;25.416;2023-04-29T03:31:25;32.00;;;11.75;;
45077;SDS011;60508;42.622;25.416;2023-04-29T03:33:52;24.65;;;9.73;;
45077;SDS011;60508;42.622;25.416;2023-04-29T03:36:19;25.10;;;9.65;;
45077;SDS011;60508;42.622;25.416;2023-04-29T03:38:51;43.72;;;18.33;;
45077;SDS011;60508;42.622;25.416;2023-04-29T03:41:18;50.30;;;17.55;;
45077;SDS011;60508;42.622;25.416;2023-04-29T03:43:45;61.85;;;21.40;;
45077;SDS011;60508;42.622;25.416;2023-04-29T03:46:11;58.33;;;20.67;;
45077;SDS011;60508;42.622;25.416;2023-04-29T03:48:38;65.85;;;24.80;;
45077;SDS011;60508;42.622;25.416;2023-04-29T03:51:05;54.55;;;22.80;;
45077;SDS011;60508;42.622;25.416;2023-04-29T03:53:32;51.78;;;19.95;;
45077;SDS011;60508;42.622;25.416;2023-04-29T03:56:01;53.03;;;20.05;;
45077;SDS011;60508;42.622;25.416;2023-04-29T03:58:27;45.30;;;17.45;;
45077;SDS011;60508;42.622;25.416;2023-04-29T04:00:55;57.40;;;20.52;;
45077;SDS011;60508;42.622;25.416;2023-04-29T04:03:30;59.13;;;18.52;;
45077;SDS011;60508;42.622;25.416;2023-04-29T04:05:58;45.33;;;18.98;;
45077;SDS011;60508;42.622;25.416;2023-04-29T04:08:24;45.92;;;16.85;;
45077;SDS011;60508;42.622;25.416;2023-04-29T04:10:57;37.67;;;15.77;;
45077;SDS011;60508;42.622;25.416;2023-04-29T04:13:42;45.22;;;16.85;;
45077;SDS011;60508;42.622;25.416;2023-04-29T04:16:08;31.60;;;15.00;;
45077;SDS011;60508;42.622;25.416;2023-04-29T04:18:38;50.95;;;16.83;;
45077;SDS011;60508;42.622;25.416;2023-04-29T04:21:05;32.42;;;14.95;;
45077;SDS011;60508;42.622;25.416;2023-04-29T04:23:33;51.20;;;18.15;;
45077;SDS011;60508;42.622;25.416;2023-04-29T04:26:00;43.47;;;17.52;;
45077;SDS011;60508;42.622;25.416;2023-04-29T04:28:58;40.37;;;15.13;;
45077;SDS011;60508;42.622;25.416;2023-04-29T04:31:33;30.92;;;13.70;;
45077;SDS011;60508;42.622;25.416;2023-04-29T04:34:01;27.77;;;12.10;;
45077;SDS011;60508;42.622;25.416;2023-04-29T04:36:29;28.73;;;12.20;;
45077;SDS011;60508;42.622;25.416;2023-04-29T04:38:56;19.83;;;11.40;;
45077;SDS011;60508;42.622;25.416;2023-04-29T04:41:21;21.77;;;10.30;;
45077;SDS011;60508;42.622;25.416;2023-04-29T04:43:48;16.70;;;8.65;;
45077;SDS011;60508;42.622;25.416;2023-04-29T04:46:21;17.67;;;9.15;;
45077;SDS011;60508;42.622;25.416;2023-04-29T04:49:01;16.40;;;8.43;;
45077;SDS011;60508;42.622;25.416;2023-04-29T04:51:28;15.80;;;7.75;;
45077;SDS011;60508;42.622;25.416;2023-04-29T04:53:54;22.80;;;9.93;;
45077;SDS011;60508;42.622;25.416;2023-04-29T04:56:22;21.15;;;9.90;;
45077;SDS011;60508;42.622;25.416;2023-04-29T04:58:48;28.73;;;13.00;;
45077;SDS011;60508;42.622;25.416;2023-04-29T05:01:14;36.33;;;15.73;;
45077;SDS011;60508;42.622;25.416;2023-04-29T05:03:40;32.03;;;15.45;;
45077;SDS011;60508;42.622;25.416;2023-04-29T05:06:06;32.08;;;13.43;;
45077;SDS011;60508;42.622;25.416;2023-04-29T05:08:32;32.25;;;14.45;;
45077;SDS011;60508;42.622;25.416;2023-04-29T05:11:00;22.20;;;11.98;;
45077;SDS011;60508;42.622;25.416;2023-04-29T05:13:26;39.25;;;15.23;;
45077;SDS011;60508;42.622;25.416;2023-04-29T05:15:53;38.00;;;14.38;;
45077;SDS011;60508;42.622;25.416;2023-04-29T05:18:22;33.28;;;15.13;;
45077;SDS011;60508;42.622;25.416;2023-04-29T05:20:50;33.78;;;15.18;;
45077;SDS011;60508;42.622;25.416;2023-04-29T05:23:17;30.17;;;14.68;;
45077;SDS011;60508;42.622;25.416;2023-04-29T05:25:45;36.17;;;16.13;;
45077;SDS011;60508;42.622;25.416;2023-04-29T05:28:11;36.03;;;15.88;;
45077;SDS011;60508;42.622;25.416;2023-04-29T05:30:39;35.03;;;16.77;;
45077;SDS011;60508;42.622;25.416;2023-04-29T05:33:06;34.63;;;16.08;;
45077;SDS011;60508;42.622;25.416;2023-04-29T05:35:32;45.40;;;17.88;;
45077;SDS011;60508;42.622;25.416;2023-04-29T05:37:58;39.17;;;17.42;;
45077;SDS011;60508;42.622;25.416;2023-04-29T05:40:34;34.28;;;15.80;;
45077;SDS011;60508;42.622;25.416;2023-04-29T05:43:27;38.47;;;15.27;;
45077;SDS011;60508;42.622;25.416;2023-04-29T05:45:55;35.97;;;13.60;;
45077;SDS011;60508;42.622;25.416;2023-04-29T05:48:23;26.75;;;12.10;;
45077;SDS011;60508;42.622;25.416;2023-04-29T05:50:50;34.13;;;12.93;;
45077;SDS011;60508;42.622;25.416;2023-04-29T05:53:16;25.25;;;12.05;;
45077;SDS011;60508;42.622;25.416;2023-04-29T05:55:42;29.83;;;12.93;;
45077;SDS011;60508;42.622;25.416;2023-04-29T05:58:10;24.02;;;13.02;;
45077;SDS011;60508;42.622;25.416;2023-04-29T06:00:36;23.88;;;10.38;;
45077;SDS011;60508;42.622;25.416;2023-04-29T06:03:11;20.05;;;11.90;;
45077;SDS011;60508;42.622;25.416;2023-04-29T06:05:37;25.83;;;13.30;;
45077;SDS011;60508;42.622;25.416;2023-04-29T06:08:18;30.67;;;15.27;;
45077;SDS011;60508;42.622;25.416;2023-04-29T06:11:00;24.67;;;12.48;;
45077;SDS011;60508;42.622;25.416;2023-04-29T06:13:28;31.30;;;13.80;;
45077;SDS011;60508;42.622;25.416;2023-04-29T06:15:55;30.60;;;13.65;;
45077;SDS011;60508;42.622;25.416;2023-04-29T06:18:21;30.30;;;12.95;;
45077;SDS011;60508;42.622;25.416;2023-04-29T06:20:48;18.55;;;10.32;;
45077;SDS011;60508;42.622;25.416;2023-04-29T06:23:14;27.30;;;15.60;;
45077;SDS011;60508;42.622;25.416;2023-04-29T06:25:40;29.13;;;14.05;;
45077;SDS011;60508;42.622;25.416;2023-04-29T06:28:08;35.28;;;13.02;;
45077;SDS011;60508;42.622;25.416;2023-04-29T06:30:35;23.17;;;10.05;;
45077;SDS011;60508;42.622;25.416;2023-04-29T06:33:01;24.83;;;11.38;;
45077;SDS011;60508;42.622;25.416;2023-04-29T06:35:27;25.15;;;12.02;;
45077;SDS011;60508;42.622;25.416;2023-04-29T06:38:21;21.83;;;7.38;;
45077;SDS011;60508;42.622;25.416;2023-04-29T06:41:13;17.02;;;8.65;;
45077;SDS011;60508;42.622;25.416;2023-04-29T06:44:00;16.73;;;8.52;;
45077;SDS011;60508;42.622;25.416;2023-04-29T06:46:26;16.90;;;8.57;;
45077;SDS011;60508;42.622;25.416;2023-04-29T06:49:02;17.55;;;6.90;;
45077;SDS011;60508;42.622;25.416;2023-04-29T06:51:30;12.32;;;6.05;;
45077;SDS011;60508;42.622;25.416;2023-04-29T06:53:57;16.10;;;6.30;;
45077;SDS011;60508;42.622;25.416;2023-04-29T06:56:23;11.00;;;5.15;;
45077;SDS011;60508;42.622;25.416;2023-04-29T06:58:50;11.68;;;6.32;;
45077;SDS011;60508;42.622;25.416;2023-04-29T07:01:16;10.65;;;3.83;;
45077;SDS011;60508;42.622;25.416;2023-04-29T07:03:43;10.35;;;4.65;;
45077;SDS011;60508;42.622;25.416;2023-04-29T07:06:09;9.35;;;5.07;;
45077;SDS011;60508;42.622;25.416;2023-04-29T07:08:37;11.50;;;5.80;;
45077;SDS011;60508;42.622;25.416;2023-04-29T07:11:02;13.38;;;4.45;;
45077;SDS011;60508;42.622;25.416;2023-04-29T07:13:29;11.63;;;4.82;;
45077;SDS011;60508;42.622;25.416;2023-04-29T07:15:55;5.72;;;4.20;;
45077;SDS011;60508;42.622;25.416;2023-04-29T07:18:21;11.77;;;4.13;;
45077;SDS011;60508;42.622;25.416;2023-04-29T07:20:47;9.88;;;3.90;;
45077;SDS011;60508;42.622;25.416;2023-04-29T07:23:15;6.88;;;4.40;;
45077;SDS011;60508;42.622;25.416;2023-04-29T07:25:41;12.77;;;5.05;;
45077;SDS011;60508;42.622;25.416;2023-04-29T07:28:07;11.02;;;4.72;;
45077;SDS011;60508;42.622;25.416;2023-04-29T07:30:34;11.80;;;4.07;;
45077;SDS011;60508;42.622;25.416;2023-04-29T07:33:02;9.82;;;5.70;;
45077;SDS011;60508;42.622;25.416;2023-04-29T07:35:28;11.43;;;5.63;;
45077;SDS011;60508;42.622;25.416;2023-04-29T07:37:55;25.33;;;12.10;;
45077;SDS011;60508;42.622;25.416;2023-04-29T07:40:22;18.10;;;9.00;;
45077;SDS011;60508;42.622;25.416;2023-04-29T07:42:48;40.63;;;25.42;;
45077;SDS011;60508;42.622;25.416;2023-04-29T07:45:16;85.40;;;56.97;;
45077;SDS011;60508;42.622;25.416;2023-04-29T07:47:42;129.07;;;84.68;;
45077;SDS011;60508;42.622;25.416;2023-04-29T07:50:10;108.97;;;65.35;;
45077;SDS011;60508;42.622;25.416;2023-04-29T07:52:37;31.75;;;18.33;;
45077;SDS011;60508;42.622;25.416;2023-04-29T07:55:03;23.55;;;11.93;;
45077;SDS011;60508;42.622;25.416;2023-04-29T07:57:30;15.60;;;8.70;;
45077;SDS011;60508;42.622;25.416;2023-04-29T07:59:57;12.70;;;7.05;;
45077;SDS011;60508;42.622;25.416;2023-04-29T08:02:23;9.65;;;3.40;;
45077;SDS011;60508;42.622;25.416;2023-04-29T08:04:50;10.15;;;5.15;;
45077;SDS011;60508;42.622;25.416;2023-04-29T08:07:18;9.10;;;5.07;;
45077;SDS011;60508;42.622;25.416;2023-04-29T08:09:45;10.25;;;4.28;;
45077;SDS011;60508;42.622;25.416;2023-04-29T08:12:11;9.20;;;4.30;;
45077;SDS011;60508;42.622;25.416;2023-04-29T08:14:39;12.30;;;4.13;;
45077;SDS011;60508;42.622;25.416;2023-04-29T08:17:05;12.18;;;4.03;;
45077;SDS011;60508;42.622;25.416;2023-04-29T08:19:32;7.93;;;4.07;;
45077;SDS011;60508;42.622;25.416;2023-04-29T08:21:58;6.97;;;3.30;;
45077;SDS011;60508;42.622;25.416;2023-04-29T08:24:25;9.70;;;3.80;;
45077;SDS011;60508;42.622;25.416;2023-04-29T08:26:51;6.57;;;3.13;;
45077;SDS011;60508;42.622;25.416;2023-04-29T08:29:18;11.18;;;6.38;;
45077;SDS011;60508;42.622;25.416;2023-04-29T08:31:44;11.40;;;5.57;;
45077;SDS011;60508;42.622;25.416;2023-04-29T08:34:11;21.95;;;9.18;;
45077;SDS011;60508;42.622;25.416;2023-04-29T08:36:37;14.55;;;6.53;;
45077;SDS011;60508;42.622;25.416;2023-04-29T08:39:03;13.18;;;5.07;;
45077;SDS011;60508;42.622;25.416;2023-04-29T08:41:30;10.07;;;4.43;;
45077;SDS011;60508;42.622;25.416;2023-04-29T08:44:00;12.23;;;5.30;;
45077;SDS011;60508;42.622;25.416;2023-04-29T08:46:27;8.20;;;2.78;;
45077;SDS011;60508;42.622;25.416;2023-04-29T08:48:53;8.57;;;3.20;;
45077;SDS011;60508;42.622;25.416;2023-04-29T08:51:22;3.97;;;3.00;;
45077;SDS011;60508;42.622;25.416;2023-04-29T08:53:49;17.10;;;3.47;;
45077;SDS011;60508;42.622;25.416;2023-04-29T08:56:15;9.98;;;2.95;;
45077;SDS011;60508;42.622;25.416;2023-04-29T08:58:44;14.60;;;4.30;;
45077;SDS011;60508;42.622;25.416;2023-04-29T09:01:11;6.10;;;3.95;;
45077;SDS011;60508;42.622;25.416;2023-04-29T09:03:43;12.95;;;5.93;;
45077;SDS011;60508;42.622;25.416;2023-04-29T09:06:15;7.50;;;4.25;;
45077;SDS011;60508;42.622;25.416;2023-04-29T09:08:42;8.68;;;3.45;;
45077;SDS011;60508;42.622;25.416;2023-04-29T09:11:09;8.95;;;3.63;;
45077;SDS011;60508;42.622;25.416;2023-04-29T09:13:37;4.45;;;3.08;;
45077;SDS011;60508;42.622;25.416;2023-04-29T09:16:03;10.02;;;3.40;;
45077;SDS011;60508;42.622;25.416;2023-04-29T09:18:49;6.32;;;3.88;;
45077;SDS011;60508;42.622;25.416;2023-04-29T09:23:53;7.72;;;4.10;;
45077;SDS011;60508;42.622;25.416;2023-04-29T09:26:21;6.90;;;3.67;;
45077;SDS011;60508;42.622;25.416;2023-04-29T09:29:11;8.15;;;3.75;;
45077;SDS011;60508;42.622;25.416;2023-04-29T09:31:38;6.75;;;3.67;;
45077;SDS011;60508;42.622;25.416;2023-04-29T09:34:05;5.30;;;3.13;;
45077;SDS011;60508;42.622;25.416;2023-04-29T09:39:12;3.95;;;2.33;;
45077;SDS011;60508;42.622;25.416;2023-04-29T09:44:18;6.13;;;2.28;;
45077;SDS011;60508;42.622;25.416;2023-04-29T09:46:54;8.15;;;2.80;;
45077;SDS011;60508;42.622;25.416;2023-04-29T09:49:29;4.30;;;2.15;;
45077;SDS011;60508;42.622;25.416;2023-04-29T09:52:02;6.60;;;2.10;;
45077;SDS011;60508;42.622;25.416;2023-04-29T09:54:32;1.90;;;1.65;;
45077;SDS011;60508;42.622;25.416;2023-04-29T09:57:01;7.20;;;2.30;;
45077;SDS011;60508;42.622;25.416;2023-04-29T09:59:30;4.47;;;2.00;;
45077;SDS011;60508;42.622;25.416;2023-04-29T10:01:59;2.60;;;1.85;;
45077;SDS011;60508;42.622;25.416;2023-04-29T10:04:26;5.43;;;2.42;;
45077;SDS011;60508;42.622;25.416;2023-04-29T10:06:53;4.97;;;2.05;;
45077;SDS011;60508;42.622;25.416;2023-04-29T10:09:21;12.25;;;3.65;;
45077;SDS011;60508;42.622;25.416;2023-04-29T10:11:49;8.93;;;2.40;;
45077;SDS011;60508;42.622;25.416;2023-04-29T10:14:22;5.80;;;2.17;;
45077;SDS011;60508;42.622;25.416;2023-04-29T10:17:01;3.83;;;2.17;;
45077;SDS011;60508;42.622;25.416;2023-04-29T10:19:47;6.85;;;3.20;;
45077;SDS011;60508;42.622;25.416;2023-04-29T10:22:28;2.03;;;1.77;;
45077;SDS011;60508;42.622;25.416;2023-04-29T10:24:59;6.15;;;2.60;;
45077;SDS011;60508;42.622;25.416;2023-04-29T10:27:26;6.20;;;2.50;;
45077;SDS011;60508;42.622;25.416;2023-04-29T10:29:53;5.55;;;2.40;;
45077;SDS011;60508;42.622;25.416;2023-04-29T10:32:21;4.05;;;2.45;;
45077;SDS011;60508;42.622;25.416;2023-04-29T10:34:48;8.50;;;2.90;;
45077;SDS011;60508;42.622;25.416;2023-04-29T10:37:17;3.78;;;2.53;;
45077;SDS011;60508;42.622;25.416;2023-04-29T10:42:41;8.07;;;3.75;;
45077;SDS011;60508;42.622;25.416;2023-04-29T10:45:18;10.93;;;3.92;;
45077;SDS011;60508;42.622;25.416;2023-04-29T10:53:13;8.13;;;2.35;;
45077;SDS011;60508;42.622;25.416;2023-04-29T10:55:40;7.20;;;3.70;;
45077;SDS011;60508;42.622;25.416;2023-04-29T11:00:58;6.10;;;4.38;;
45077;SDS011;60508;42.622;25.416;2023-04-29T11:06:12;6.88;;;3.47;;
45077;SDS011;60508;42.622;25.416;2023-04-29T11:08:38;5.38;;;2.75;;
45077;SDS011;60508;42.622;25.416;2023-04-29T11:11:05;11.45;;;1.77;;
45077;SDS011;60508;42.622;25.416;2023-04-29T11:13:32;8.88;;;2.22;;
45077;SDS011;60508;42.622;25.416;2023-04-29T11:16:07;6.35;;;4.82;;
45077;SDS011;60508;42.622;25.416;2023-04-29T11:18:35;6.07;;;3.88;;
45077;SDS011;60508;42.622;25.416;2023-04-29T11:21:27;7.40;;;4.40;;
45077;SDS011;60508;42.622;25.416;2023-04-29T11:23:55;13.57;;;3.33;;
45077;SDS011;60508;42.622;25.416;2023-04-29T11:26:22;9.13;;;2.28;;
45077;SDS011;60508;42.622;25.416;2023-04-29T11:28:49;9.40;;;2.45;;
45077;SDS011;60508;42.622;25.416;2023-04-29T11:31:16;5.10;;;3.05;;
45077;SDS011;60508;42.622;25.416;2023-04-29T11:33:42;4.30;;;1.80;;
45077;SDS011;60508;42.622;25.416;2023-04-29T11:36:08;6.15;;;2.15;;
45077;SDS011;60508;42.622;25.416;2023-04-29T11:38:38;8.27;;;5.03;;
45077;SDS011;60508;42.622;25.416;2023-04-29T11:41:05;7.30;;;2.50;;
45077;SDS011;60508;42.622;25.416;2023-04-29T11:43:31;6.07;;;3.08;;
45077;SDS011;60508;42.622;25.416;2023-04-29T11:45:57;3.97;;;3.10;;
45077;SDS011;60508;42.622;25.416;2023-04-29T11:48:24;7.05;;;3.15;;
45077;SDS011;60508;42.622;25.416;2023-04-29T11:50:51;7.35;;;2.85;;
45077;SDS011;60508;42.622;25.416;2023-04-29T11:53:19;6.47;;;3.20;;
45077;SDS011;60508;42.622;25.416;2023-04-29T11:55:47;6.65;;;2.38;;
45077;SDS011;60508;42.622;25.416;2023-04-29T11:58:13;6.07;;;2.60;;
45077;SDS011;60508;42.622;25.416;2023-04-29T12:00:43;4.13;;;2.42;;
45077;SDS011;60508;42.622;25.416;2023-04-29T12:03:13;6.53;;;2.15;;
45077;SDS011;60508;42.622;25.416;2023-04-29T12:05:50;3.97;;;1.75;;
45077;SDS011;60508;42.622;25.416;2023-04-29T12:08:20;7.43;;;2.30;;
45077;SDS011;60508;42.622;25.416;2023-04-29T12:10:49;3.33;;;1.75;;
45077;SDS011;60508;42.622;25.416;2023-04-29T12:13:17;2.17;;;1.50;;
45077;SDS011;60508;42.622;25.416;2023-04-29T12:15:45;9.03;;;2.23;;
45077;SDS011;60508;42.622;25.416;2023-04-29T12:18:12;5.93;;;2.63;;
45077;SDS011;60508;42.622;25.416;2023-04-29T12:20:39;4.28;;;2.45;;
45077;SDS011;60508;42.622;25.416;2023-04-29T12:23:11;9.20;;;3.47;;
45077;SDS011;60508;42.622;25.416;2023-04-29T12:25:38;7.75;;;3.17;;
45077;SDS011;60508;42.622;25.416;2023-04-29T12:28:12;5.43;;;2.65;;
45077;SDS011;60508;42.622;25.416;2023-04-29T12:30:38;5.53;;;2.42;;
45077;SDS011;60508;42.622;25.416;2023-04-29T12:33:07;4.65;;;1.88;;
45077;SDS011;60508;42.622;25.416;2023-04-29T12:35:34;6.10;;;3.83;;
45077;SDS011;60508;42.622;25.416;2023-04-29T12:38:01;3.92;;;2.50;;
45077;SDS011;60508;42.622;25.416;2023-04-29T12:40:27;4.88;;;2.58;;
45077;SDS011;60508;42.622;25.416;2023-04-29T12:42:53;6.03;;;3.60;;
45077;SDS011;60508;42.622;25.416;2023-04-29T12:45:28;7.07;;;3.95;;
45077;SDS011;60508;42.622;25.416;2023-04-29T12:47:55;11.10;;;3.25;;
45077;SDS011;60508;42.622;25.416;2023-04-29T12:50:32;4.85;;;2.15;;
45077;SDS011;60508;42.622;25.416;2023-04-29T12:52:59;5.10;;;1.33;;
45077;SDS011;60508;42.622;25.416;2023-04-29T12:55:26;5.72;;;2.40;;
45077;SDS011;60508;42.622;25.416;2023-04-29T12:57:52;3.72;;;2.10;;
45077;SDS011;60508;42.622;25.416;2023-04-29T13:00:19;2.45;;;2.25;;
45077;SDS011;60508;42.622;25.416;2023-04-29T13:02:45;4.47;;;2.83;;
45077;SDS011;60508;42.622;25.416;2023-04-29T13:05:14;3.90;;;2.13;;
45077;SDS011;60508;42.622;25.416;2023-04-29T13:07:40;5.72;;;1.75;;
45077;SDS011;60508;42.622;25.416;2023-04-29T13:10:07;3.72;;;2.70;;
45077;SDS011;60508;42.622;25.416;2023-04-29T13:12:34;7.63;;;2.63;;
45077;SDS011;60508;42.622;25.416;2023-04-29T13:15:00;3.63;;;2.45;;
45077;SDS011;60508;42.622;25.416;2023-04-29T13:17:26;5.38;;;1.83;;
45077;SDS011;60508;42.622;25.416;2023-04-29T13:19:52;9.82;;;2.20;;
45077;SDS011;60508;42.622;25.416;2023-04-29T13:22:18;3.55;;;2.13;;
45077;SDS011;60508;42.622;25.416;2023-04-29T13:24:44;7.28;;;2.38;;
45077;SDS011;60508;42.622;25.416;2023-04-29T13:27:10;9.45;;;2.28;;
45077;SDS011;60508;42.622;25.416;2023-04-29T13:29:37;8.00;;;2.95;;
45077;SDS011;60508;42.622;25.416;2023-04-29T13:32:03;2.92;;;1.58;;
45077;SDS011;60508;42.622;25.416;2023-04-29T13:34:29;3.30;;;1.95;;
45077;SDS011;60508;42.622;25.416;2023-04-29T13:36:55;7.18;;;1.77;;
45077;SDS011;60508;42.622;25.416;2023-04-29T13:39:20;3.53;;;1.92;;
45077;SDS011;60508;42.622;25.416;2023-04-29T13:41:47;5.03;;;1.80;;
45077;SDS011;60508;42.622;25.416;2023-04-29T13:44:13;3.00;;;1.50;;
45077;SDS011;60508;42.622;25.416;2023-04-29T13:46:40;4.30;;;1.88;;
45077;SDS011;60508;42.622;25.416;2023-04-29T13:49:06;5.38;;;1.67;;
45077;SDS011;60508;42.622;25.416;2023-04-29T13:51:31;6.35;;;1.35;;
45077;SDS011;60508;42.622;25.416;2023-04-29T13:53:58;3.53;;;1.60;;
45077;SDS011;60508;42.622;25.416;2023-04-29T13:56:24;1.80;;;1.48;;
45077;SDS011;60508;42.622;25.416;2023-04-29T13:58:52;6.90;;;2.10;;
45077;SDS011;60508;42.622;25.416;2023-04-29T14:01:18;5.43;;;2.15;;
45077;SDS011;60508;42.622;25.416;2023-04-29T14:03:44;7.38;;;3.28;;
45077;SDS011;60508;42.622;25.416;2023-04-29T14:06:10;2.58;;;2.30;;
45077;SDS011;60508;42.622;25.416;2023-04-29T14:08:36;5.68;;;1.98;;
45077;SDS011;60508;42.622;25.416;2023-04-29T14:11:03;2.30;;;1.67;;
45077;SDS011;60508;42.622;25.416;2023-04-29T14:13:30;5.72;;;1.85;;
45077;SDS011;60508;42.622;25.416;2023-04-29T14:15:56;10.05;;;1.83;;
45077;SDS011;60508;42.622;25.416;2023-04-29T14:18:24;4.20;;;2.10;;
45077;SDS011;60508;42.622;25.416;2023-04-29T14:20:49;4.93;;;2.10;;
45077;SDS011;60508;42.622;25.416;2023-04-29T14:23:16;2.72;;;1.50;;
45077;SDS011;60508;42.622;25.416;2023-04-29T14:25:42;11.55;;;2.50;;
45077;SDS011;60508;42.622;25.416;2023-04-29T14:28:08;3.58;;;1.73;;
45077;SDS011;60508;42.622;25.416;2023-04-29T14:30:35;6.03;;;2.20;;
45077;SDS011;60508;42.622;25.416;2023-04-29T14:33:01;9.20;;;3.10;;
45077;SDS011;60508;42.622;25.416;2023-04-29T14:35:27;4.53;;;3.05;;
45077;SDS011;60508;42.622;25.416;2023-04-29T14:37:54;4.97;;;3.05;;
45077;SDS011;60508;42.622;25.416;2023-04-29T14:40:20;5.05;;;2.33;;
45077;SDS011;60508;42.622;25.416;2023-04-29T14:42:46;7.95;;;2.92;;
45077;SDS011;60508;42.622;25.416;2023-04-29T14:45:14;7.47;;;3.72;;
45077;SDS011;60508;42.622;25.416;2023-04-29T14:47:41;6.95;;;2.22;;
45077;SDS011;60508;42.622;25.416;2023-04-29T14:50:07;5.50;;;3.13;;
45077;SDS011;60508;42.622;25.416;2023-04-29T14:52:35;4.20;;;2.33;;
45077;SDS011;60508;42.622;25.416;2023-04-29T14:55:01;5.38;;;3.45;;
45077;SDS011;60508;42.622;25.416;2023-04-29T14:57:27;3.80;;;2.80;;
45077;SDS011;60508;42.622;25.416;2023-04-29T14:59:55;4.35;;;2.03;;
45077;SDS011;60508;42.622;25.416;2023-04-29T15:02:21;10.45;;;3.10;;
45077;SDS011;60508;42.622;25.416;2023-04-29T15:04:48;6.38;;;2.33;;
45077;SDS011;60508;42.622;25.416;2023-04-29T15:07:14;5.32;;;2.53;;
45077;SDS011;60508;42.622;25.416;2023-04-29T15:09:41;2.13;;;1.52;;
45077;SDS011;60508;42.622;25.416;2023-04-29T15:12:07;4.53;;;2.60;;